Time;durP1;ratioP1;P1;durP2;ratioP2;P2;SDS_P1;SDS_P2;PMS_P1;PMS_P2;Temp;Humidity;BMP_temperature;BMP_pressure;BME280_temperature;BME280_humidity;BME280_pressure;Samples;Min_cycle;Max_cycle;Signal;HPM_P1;HPM_P2
2022/05/08 00:00:54;;;;;;;7.13;6.53;;;;;;;12.01;69.84;102170.88;5055421;28;20373;-44
2022/05/08 00:03:19;;;;;;;7.45;6.85;;;;;;;11.88;69.58;102153.47;5055610;28;20053;-43
2022/05/08 00:05:45;;;;;;;7.40;6.80;;;;;;;11.82;70.15;102177.31;5056029;28;20100;-45
2022/05/08 00:08:11;;;;;;;7.13;6.53;;;;;;;11.77;70.15;102176.13;5037865;28;20036;-45
2022/05/08 00:10:37;;;;;;;7.38;6.78;;;;;;;11.80;70.26;102170.44;5037523;28;20357;-44
2022/05/08 00:13:03;;;;;;;8.90;7.13;;;;;;;11.79;69.83;102166.91;5055478;28;20040;-45
2022/05/08 00:15:28;;;;;;;7.13;6.50;;;;;;;11.68;70.23;102177.06;5055361;28;20118;-44
2022/05/08 00:17:54;;;;;;;6.70;6.13;;;;;;;11.59;70.73;102155.50;5037008;28;20486;-45
2022/05/08 00:20:20;;;;;;;6.65;5.93;;;;;;;11.93;70.58;102170.03;5055037;28;20056;-44
2022/05/08 00:22:46;;;;;;;6.28;5.78;;;;;;;12.00;70.66;102169.22;5055481;28;20044;-44
2022/05/08 00:25:13;;;;;;;5.10;4.70;;;;;;;11.99;70.35;102164.81;5054275;28;20039;-45
2022/05/08 00:27:38;;;;;;;7.40;6.80;;;;;;;11.95;69.95;102176.09;5054772;28;20036;-45
2022/05/08 00:30:05;;;;;;;8.38;6.50;;;;;;;11.79;70.70;102179.50;5054537;28;20040;-46
2022/05/08 00:32:31;;;;;;;7.15;6.43;;;;;;;11.76;70.97;102175.28;5054429;28;20064;-44
2022/05/08 00:34:57;;;;;;;7.35;6.65;;;;;;;11.55;70.20;102172.97;5054586;28;20069;-45
2022/05/08 00:37:23;;;;;;;7.55;6.85;;;;;;;11.64;69.85;102176.53;5055083;28;20025;-45
2022/05/08 00:39:48;;;;;;;6.85;6.18;;;;;;;11.56;69.65;102173.81;5037482;28;20033;-46
2022/05/08 00:42:14;;;;;;;6.82;6.13;;;;;;;11.46;69.83;102175.75;5055109;28;20108;-45
2022/05/08 00:44:40;;;;;;;7.18;6.47;;;;;;;11.51;69.44;102176.13;5037633;28;20055;-44
2022/05/08 00:47:06;;;;;;;8.13;7.10;;;;;;;11.50;68.97;102174.44;5055646;28;20127;-45
2022/05/08 00:49:32;;;;;;;7.65;6.93;;;;;;;11.29;69.68;102185.53;5056106;28;20028;-46
2022/05/08 00:51:59;;;;;;;8.13;7.32;;;;;;;11.11;69.64;102180.19;5041213;28;20466;-44
2022/05/08 00:54:26;;;;;;;10.52;7.25;;;;;;;10.95;70.18;102173.66;5057876;28;20056;-44
2022/05/08 00:56:54;;;;;;;9.48;7.68;;;;;;;10.99;70.12;102180.41;5054365;28;20029;-43
2022/05/08 00:59:20;;;;;;;7.90;6.60;;;;;;;10.97;70.43;102173.50;5053947;28;20021;-44
2022/05/08 01:01:45;;;;;;;9.02;7.30;;;;;;;10.65;70.17;102146.16;5053574;28;20078;-44
2022/05/08 01:04:11;;;;;;;6.90;6.20;;;;;;;10.76;70.91;102173.81;5054111;28;20029;-46
2022/05/08 01:06:37;;;;;;;6.40;5.78;;;;;;;10.81;70.66;102168.84;5036192;28;20418;-44
2022/05/08 01:09:03;;;;;;;7.18;6.25;;;;;;;10.79;70.71;102173.50;5053063;28;20036;-47
2022/05/08 01:11:29;;;;;;;7.68;6.22;;;;;;;10.62;70.79;102162.59;5053340;28;20029;-43
2022/05/08 01:13:55;;;;;;;8.52;6.75;;;;;;;10.59;71.12;102173.66;5053732;28;20037;-43
2022/05/08 01:16:21;;;;;;;7.07;6.38;;;;;;;10.57;71.18;102175.63;5036177;28;20052;-45
2022/05/08 01:18:49;;;;;;;7.78;6.97;;;;;;;10.54;71.56;102173.25;5035830;28;20025;-43
2022/05/08 01:21:17;;;;;;;10.57;6.25;;;;;;;10.44;71.42;102149.13;5054047;28;20025;-44
2022/05/08 01:23:44;;;;;;;7.88;6.82;;;;;;;10.49;71.30;102154.03;5036117;28;20441;-49
2022/05/08 01:26:10;;;;;;;8.20;6.75;;;;;;;10.51;71.43;102168.19;5053671;28;20037;-44
2022/05/08 01:28:36;;;;;;;8.65;6.15;;;;;;;10.61;71.39;102170.81;5053659;28;20059;-43
2022/05/08 01:31:02;;;;;;;9.05;6.65;;;;;;;10.69;71.06;102176.25;5053480;28;20021;-43
2022/05/08 01:33:28;;;;;;;8.23;6.38;;;;;;;10.72;70.99;102167.06;5035862;28;20101;-44
2022/05/08 01:35:56;;;;;;;7.22;6.10;;;;;;;10.73;71.28;102172.25;5053430;28;20112;-46
2022/05/08 01:38:23;;;;;;;6.70;6.07;;;;;;;10.70;71.13;102164.53;5018875;28;20033;-44
2022/05/08 01:40:50;;;;;;;7.68;6.88;;;;;;;10.76;71.20;102173.81;5035615;28;20051;-44
2022/05/08 01:43:16;;;;;;;9.35;6.80;;;;;;;10.78;71.18;102167.28;5053403;28;20366;-44
2022/05/08 01:45:42;;;;;;;10.07;7.80;;;;;;;10.81;71.72;102168.84;5040504;28;20105;-45
2022/05/08 01:48:26;;;;;;;10.35;6.57;;;;;;;10.73;72.21;102158.81;5073745;28;20028;-44
2022/05/08 01:50:54;;;;;;;7.47;6.47;;;;;;;10.93;72.20;102167.59;5073258;28;20021;-43
2022/05/08 01:53:23;;;;;;;7.68;6.15;;;;;;;10.96;71.70;102169.16;5073427;28;20380;-46
2022/05/08 01:55:53;;;;;;;8.63;6.25;;;;;;;11.02;71.50;102163.97;5073536;28;20029;-45
2022/05/08 01:58:19;;;;;;;8.40;6.70;;;;;;;10.99;71.47;102174.19;5056051;28;20452;-44
2022/05/08 02:00:46;;;;;;;7.50;6.32;;;;;;;10.99;71.19;102161.59;5073296;28;20040;-45
2022/05/08 02:03:13;;;;;;;8.70;6.90;;;;;;;11.07;71.47;102170.72;5055090;28;20029;-45
2022/05/08 02:05:41;;;;;;;9.38;6.93;;;;;;;10.95;71.78;102170.97;5055205;28;20025;-45
2022/05/08 02:08:07;;;;;;;9.40;6.50;;;;;;;10.94;71.43;102173.81;5073398;28;20035;-45
2022/05/08 02:10:34;;;;;;;11.40;6.95;;;;;;;10.79;71.09;102168.97;5073261;28;20036;-45
2022/05/08 02:12:59;;;;;;;8.27;6.00;;;;;;;10.54;72.00;102153.59;5073268;28;20032;-44
2022/05/08 02:15:29;;;;;;;10.23;6.65;;;;;;;10.64;72.01;102165.97;5073164;28;20392;-44
2022/05/08 02:17:58;;;;;;;7.07;5.88;;;;;;;10.73;72.16;102176.81;5071680;28;20035;-43
2022/05/08 02:20:24;;;;;;;9.05;6.05;;;;;;;10.67;71.99;102172.03;5074986;28;20039;-44
2022/05/08 02:29:33;;;;;;;9.10;6.05;;;;;;;10.65;71.95;102173.03;5077057;28;20028;-46
2022/05/08 02:31:59;;;;;;;8.55;6.43;;;;;;;10.54;72.11;102169.72;5058914;28;20370;-43
2022/05/08 02:34:25;;;;;;;9.80;6.65;;;;;;;10.55;72.45;102176.78;5075459;28;20024;-44
2022/05/08 02:36:51;;;;;;;7.35;6.65;;;;;;;10.42;72.67;102174.47;5059080;28;20029;-43
2022/05/08 02:39:16;;;;;;;8.63;6.97;;;;;;;10.16;73.28;102142.06;5058705;28;20032;-43
2022/05/08 02:41:42;;;;;;;8.23;6.70;;;;;;;10.45;73.41;102177.66;5076628;28;20416;-44
2022/05/08 02:44:08;;;;;;;8.43;6.53;;;;;;;10.41;72.64;102170.09;5076725;28;20031;-44
2022/05/08 02:46:34;;;;;;;6.75;5.30;;;;;;;10.51;73.00;102175.38;5064025;28;20148;-45
2022/05/08 02:49:00;;;;;;;9.60;5.50;;;;;;;10.49;72.73;102180.91;5056438;28;20139;-43
2022/05/08 02:51:25;;;;;;;9.55;6.90;;;;;;;10.50;72.94;102179.94;5056953;28;20043;-49
2022/05/08 02:53:51;;;;;;;9.52;6.20;;;;;;;10.46;72.29;102167.81;5039266;28;20045;-45
2022/05/08 02:59:03;;;;;;;9.30;6.50;;;;;;;10.45;72.51;102184.91;5045970;28;20103;-46
2022/05/08 03:01:28;;;;;;;5.70;5.15;;;;;;;10.45;72.00;102166.94;5061230;28;20092;-44
2022/05/08 03:03:54;;;;;;;6.10;5.28;;;;;;;10.71;71.17;102189.53;5025705;28;20127;-45
2022/05/08 03:06:20;;;;;;;7.00;6.40;;;;;;;10.52;71.43;102167.19;5058513;28;20029;-47
2022/05/08 03:08:46;;;;;;;8.27;6.30;;;;;;;10.59;71.77;102194.31;5055970;28;20037;-44
2022/05/08 03:11:28;;;;;;;7.40;5.75;;;;;;;10.51;72.25;102191.50;5056854;28;20036;-43
2022/05/08 03:13:55;;;;;;;7.03;5.80;;;;;;;10.48;71.91;102173.88;5056744;28;20029;-44
2022/05/08 03:16:22;;;;;;;9.95;6.28;;;;;;;10.64;72.14;102190.16;5056582;28;20385;-44
2022/05/08 03:18:49;;;;;;;9.15;6.63;;;;;;;10.79;71.35;102186.94;5022072;28;20029;-43
2022/05/08 03:21:16;;;;;;;7.85;6.82;;;;;;;10.88;71.08;102183.31;5055834;28;20072;-43
2022/05/08 03:23:43;;;;;;;9.27;7.15;;;;;;;10.90;71.17;102180.50;5055813;28;20025;-43
2022/05/08 03:26:09;;;;;;;7.63;5.43;;;;;;;10.94;70.87;102185.41;5037462;28;20115;-43
2022/05/08 03:28:38;;;;;;;7.97;6.28;;;;;;;10.96;70.79;102190.66;5055567;28;20048;-43
2022/05/08 03:31:04;;;;;;;6.85;6.10;;;;;;;10.99;70.75;102185.78;5055413;28;20366;-43
2022/05/08 03:33:31;;;;;;;10.07;5.97;;;;;;;10.81;70.97;102193.03;5054700;28;20477;-44
2022/05/08 03:35:57;;;;;;;8.85;7.00;;;;;;;10.84;71.20;102192.69;5054788;28;20029;-45
2022/05/08 03:38:23;;;;;;;9.10;6.97;;;;;;;10.84;70.91;102182.78;5054844;28;20461;-45
2022/05/08 03:40:49;;;;;;;8.10;5.95;;;;;;;11.00;70.32;102186.66;5054637;28;20109;-43
2022/05/08 03:43:15;;;;;;;6.20;5.65;;;;;;;10.95;70.18;102172.81;5054894;28;20071;-44
2022/05/08 03:45:40;;;;;;;8.23;6.30;;;;;;;11.03;70.02;102191.69;5041829;28;20059;-45
2022/05/08 03:48:07;;;;;;;10.60;6.80;;;;;;;10.92;70.59;102184.72;5057450;28;20060;-44
2022/05/08 03:50:33;;;;;;;11.65;6.20;;;;;;;10.97;70.58;102187.78;5076405;28;20075;-47
2022/05/08 03:53:01;;;;;;;12.55;6.72;;;;;;;10.95;70.33;102184.41;5040667;28;20059;-44
2022/05/08 03:55:28;;;;;;;7.30;6.60;;;;;;;10.97;70.35;102185.09;5056782;28;20100;-45
2022/05/08 03:57:53;;;;;;;7.57;6.75;;;;;;;11.00;70.10;102195.56;5057285;28;20036;-45
2022/05/08 04:00:21;;;;;;;10.00;6.50;;;;;;;10.89;69.73;102173.44;5056624;28;20138;-44
2022/05/08 04:02:47;;;;;;;6.68;5.63;;;;;;;10.91;69.31;102190.25;5074741;28;20031;-45
2022/05/08 04:05:13;;;;;;;9.18;6.10;;;;;;;10.62;69.54;102180.53;5056929;28;20141;-44
2022/05/08 04:07:39;;;;;;;14.18;6.38;;;;;;;10.45;69.75;102177.66;5056872;28;20029;-45
2022/05/08 04:10:07;;;;;;;8.35;6.75;;;;;;;10.27;71.08;102184.84;5056897;28;20451;-46
2022/05/08 04:12:33;;;;;;;8.82;6.35;;;;;;;10.25;71.17;102176.94;5056407;28;20060;-43
2022/05/08 04:14:59;;;;;;;12.70;6.90;;;;;;;10.15;71.64;102169.91;5074811;28;20024;-45
2022/05/08 04:17:28;;;;;;;10.40;6.13;;;;;;;10.25;71.72;102181.44;5074517;28;20498;-43
2022/05/08 04:19:55;;;;;;;10.15;6.28;;;;;;;10.26;71.59;102180.44;5074548;28;20107;-43
2022/05/08 04:25:10;;;;;;;10.45;6.72;;;;;;;10.13;72.76;102188.00;5059437;28;20029;-47
2022/05/08 04:27:36;;;;;;;8.20;6.40;;;;;;;10.19;71.83;102187.41;5056708;28;20042;-45
2022/05/08 04:30:03;;;;;;;11.10;7.20;;;;;;;10.09;72.28;102182.09;5073247;28;20400;-44
2022/05/08 04:32:29;;;;;;;8.10;5.68;;;;;;;10.25;71.82;102182.31;5074299;28;20032;-45
2022/05/08 04:34:55;;;;;;;11.07;7.07;;;;;;;10.11;71.90;102185.47;5074742;28;20032;-44
2022/05/08 04:37:21;;;;;;;14.48;7.30;;;;;;;9.98;72.89;102169.69;5056059;28;20028;-43
2022/05/08 04:39:47;;;;;;;9.73;6.38;;;;;;;10.15;72.13;102168.06;5073516;28;20032;-45
2022/05/08 04:42:12;;;;;;;8.52;6.25;;;;;;;10.25;72.48;102186.81;5073840;28;20333;-44
2022/05/08 04:44:38;;;;;;;9.32;5.88;;;;;;;10.33;72.02;102194.16;5073614;28;20453;-47
2022/05/08 04:47:04;;;;;;;10.00;7.05;;;;;;;10.30;72.15;102191.75;5057253;28;20375;-46
2022/05/08 04:49:30;;;;;;;10.23;6.38;;;;;;;10.39;71.96;102198.94;5054625;28;20029;-45
2022/05/08 04:51:56;;;;;;;10.30;7.03;;;;;;;10.36;71.35;102193.84;5052723;28;20335;-46
2022/05/08 04:54:24;;;;;;;11.10;7.30;;;;;;;10.14;72.46;102178.94;5053483;28;20434;-48
2022/05/08 04:56:51;;;;;;;12.65;7.20;;;;;;;10.25;72.29;102202.91;5052272;28;20103;-45
2022/05/08 04:59:17;;;;;;;10.52;7.25;;;;;;;10.11;72.39;102179.25;5053459;28;20374;-45
2022/05/08 05:01:43;;;;;;;22.50;8.48;;;;;;;10.03;72.89;102206.84;5053388;28;20420;-46
2022/05/08 05:04:09;;;;;;;13.43;8.27;;;;;;;9.98;73.97;102204.59;5053426;28;20029;-47
2022/05/08 05:06:35;;;;;;;17.55;7.78;;;;;;;9.88;72.87;102176.94;5035583;28;20021;-49
2022/05/08 05:09:01;;;;;;;18.50;8.07;;;;;;;9.92;72.67;102207.00;5002196;28;20064;-45
2022/05/08 05:11:26;;;;;;;25.10;8.85;;;;;;;9.82;73.35;102215.91;5053369;28;20065;-46
2022/05/08 05:13:52;;;;;;;24.45;8.13;;;;;;;9.78;73.25;102214.53;5053765;28;20559;-44
2022/05/08 05:16:18;;;;;;;24.90;8.70;;;;;;;9.85;73.71;102225.53;5054251;28;20036;-45
2022/05/08 05:18:44;;;;;;;24.75;7.63;;;;;;;9.91;72.83;102224.09;5053351;28;20438;-44
2022/05/08 05:21:09;;;;;;;24.23;7.38;;;;;;;9.87;73.25;102235.13;5053423;28;20470;-45
2022/05/08 05:23:35;;;;;;;23.45;8.48;;;;;;;9.84;73.17;102239.94;5054076;28;20116;-45
2022/05/08 05:26:01;;;;;;;22.45;7.47;;;;;;;9.81;73.24;102235.72;5053411;28;20114;-45
2022/05/08 05:28:27;;;;;;;23.67;8.57;;;;;;;9.73;73.46;102229.38;5036277;28;20033;-44
2022/05/08 05:30:53;;;;;;;28.58;7.90;;;;;;;9.85;72.71;102245.16;5036417;28;20032;-44
2022/05/08 05:33:19;;;;;;;22.20;8.88;;;;;;;9.55;73.37;102232.81;5053022;28;20036;-44
2022/05/08 05:35:45;;;;;;;14.70;8.02;;;;;;;9.40;73.33;102229.72;5054796;28;20033;-45
2022/05/08 05:38:10;;;;;;;16.38;8.18;;;;;;;9.46;73.82;102239.84;5055103;28;20091;-45
2022/05/08 05:40:36;;;;;;;20.85;8.73;;;;;;;9.41;73.38;102225.19;5055278;28;20447;-44
2022/05/08 05:43:02;;;;;;;18.98;8.50;;;;;;;9.46;73.42;102242.53;5055040;28;20028;-44
2022/05/08 05:45:28;;;;;;;17.45;8.18;;;;;;;9.36;74.11;102239.03;5036395;28;20404;-44
2022/05/08 05:47:54;;;;;;;18.75;7.55;;;;;;;9.50;74.01;102251.97;5054125;28;20400;-44
2022/05/08 05:50:22;;;;;;;16.13;7.90;;;;;;;9.54;74.04;102230.25;5054500;28;20025;-45
2022/05/08 05:52:48;;;;;;;15.13;8.77;;;;;;;9.31;73.13;102227.88;5039971;28;20029;-46
2022/05/08 05:55:15;;;;;;;18.58;8.23;;;;;;;9.43;73.83;102255.38;5055684;28;20124;-44
2022/05/08 05:57:41;;;;;;;13.95;8.23;;;;;;;9.49;73.60;102258.34;5055782;28;20029;-44
2022/05/08 06:00:11;;;;;;;20.70;8.45;;;;;;;9.57;73.09;102256.81;5053839;28;20120;-45
2022/05/08 06:02:37;;;;;;;20.63;7.82;;;;;;;9.56;73.41;102266.66;5039547;28;20107;-44
2022/05/08 06:05:06;;;;;;;16.60;7.88;;;;;;;9.50;73.54;102249.31;5056127;28;20033;-44
2022/05/08 06:07:33;;;;;;;22.48;7.80;;;;;;;9.56;73.10;102255.94;5039601;28;20469;-46
2022/05/08 06:09:59;;;;;;;22.85;7.35;;;;;;;9.63;72.84;102261.59;5058588;28;20363;-45
2022/05/08 06:12:25;;;;;;;17.55;7.25;;;;;;;9.71;73.04;102237.56;5057877;28;20043;-45
2022/05/08 06:14:51;;;;;;;15.75;6.72;;;;;;;9.92;72.72;102263.34;5057404;28;20021;-48
2022/05/08 06:17:16;;;;;;;22.25;6.82;;;;;;;9.96;72.22;102257.56;5057699;28;20511;-44
2022/05/08 06:19:42;;;;;;;14.68;5.93;;;;;;;10.11;72.14;102257.94;5056258;28;20082;-45
2022/05/08 06:22:08;;;;;;;20.95;6.38;;;;;;;10.14;71.28;102262.16;5037216;28;20455;-45
2022/05/08 06:24:35;;;;;;;19.52;7.30;;;;;;;10.13;71.10;102260.50;5054103;28;20061;-44
2022/05/08 06:27:01;;;;;;;24.13;6.45;;;;;;;9.92;71.79;102258.84;5035852;28;20516;-44
2022/05/08 06:29:27;;;;;;;16.02;5.28;;;;;;;10.12;71.13;102273.03;5053461;28;20029;-45
2022/05/08 06:31:53;;;;;;;15.13;5.35;;;;;;;10.17;69.71;102278.84;5052990;28;20025;-44
2022/05/08 06:34:19;;;;;;;24.25;5.80;;;;;;;10.00;70.73;102275.06;5053736;28;20361;-43
2022/05/08 06:36:45;;;;;;;27.13;6.53;;;;;;;9.96;70.06;102279.03;5053461;28;20097;-45
2022/05/08 06:39:13;;;;;;;20.38;5.70;;;;;;;10.04;70.32;102264.88;5053279;28;20029;-44
2022/05/08 06:41:39;;;;;;;22.95;6.80;;;;;;;9.96;69.80;102256.72;5052711;28;20107;-44
2022/05/08 06:44:06;;;;;;;25.88;6.40;;;;;;;10.26;70.17;102261.84;5052822;28;20037;-46
2022/05/08 06:46:32;;;;;;;24.58;5.82;;;;;;;10.55;69.70;102279.72;5062873;28;20052;-46
2022/05/08 06:48:58;;;;;;;26.00;5.55;;;;;;;10.51;68.61;102280.16;5038027;28;20146;-44
2022/05/08 06:51:24;;;;;;;26.45;6.00;;;;;;;10.34;67.53;102279.94;5054541;28;20035;-51
2022/05/08 06:53:50;;;;;;;16.63;5.20;;;;;;;10.43;68.65;102283.59;5072869;28;20044;-44
2022/05/08 06:56:16;;;;;;;24.65;5.63;;;;;;;10.33;68.48;102256.78;5072450;28;20083;-44
2022/05/08 07:01:36;;;;;;;18.40;4.60;;;;;;;10.57;67.85;102277.72;5057320;28;20044;-44
2022/05/08 07:04:03;;;;;;;25.20;5.68;;;;;;;10.79;67.61;102286.38;5053950;28;20033;-43
2022/05/08 07:06:29;;;;;;;14.02;4.60;;;;;;;10.85;67.46;102281.25;5072569;28;20446;-44
2022/05/08 07:08:55;;;;;;;16.42;4.15;;;;;;;11.03;66.74;102278.59;5076042;28;20040;-50
2022/05/08 07:11:21;;;;;;;20.60;4.75;;;;;;;11.22;66.54;102295.59;5076126;28;20040;-44
2022/05/08 07:13:48;;;;;;;21.33;5.50;;;;;;;10.92;65.96;102273.44;5076716;28;20037;-44
2022/05/08 07:16:14;;;;;;;23.60;5.47;;;;;;;11.27;65.77;102295.97;5075961;28;20048;-43
2022/05/08 07:18:39;;;;;;;23.45;5.25;;;;;;;11.51;65.22;102273.81;5076830;28;20032;-59
2022/05/08 07:21:05;;;;;;;28.10;5.43;;;;;;;11.80;64.47;102299.63;5077710;28;20369;-43
2022/05/08 07:23:32;;;;;;;24.75;4.43;;;;;;;12.14;63.66;102298.88;5059224;28;20024;-44
2022/05/08 07:25:58;;;;;;;23.40;4.47;;;;;;;11.97;62.98;102298.78;5058325;28;20032;-43
2022/05/08 07:28:24;;;;;;;23.20;4.38;;;;;;;11.38;62.86;102297.59;5075794;28;20036;-45
2022/05/08 07:30:50;;;;;;;23.77;4.57;;;;;;;11.24;63.81;102290.91;5076872;28;20033;-43
2022/05/08 07:33:16;;;;;;;17.83;4.72;;;;;;;11.14;64.46;102285.56;5076142;28;20024;-42
2022/05/08 07:38:29;;;;;;;17.92;4.93;;;;;;;11.31;63.03;102300.06;5060788;28;20028;-43
2022/05/08 07:40:56;;;;;;;21.60;3.95;;;;;;;11.35;62.54;102292.53;5057680;28;20460;-43
2022/05/08 07:43:22;;;;;;;19.35;4.13;;;;;;;11.45;63.91;102293.28;5075542;28;20036;-44
2022/05/08 07:45:51;;;;;;;21.85;4.47;;;;;;;11.54;62.70;102286.13;5069900;28;20045;-46
2022/05/08 07:48:17;;;;;;;25.20;4.68;;;;;;;11.36;63.13;102265.44;5055344;28;20037;-44
2022/05/08 07:50:45;;;;;;;21.80;4.38;;;;;;;11.57;63.57;102286.66;5055447;28;20078;-45
2022/05/08 07:53:12;;;;;;;27.23;5.43;;;;;;;11.46;63.00;102276.16;5054960;28;20462;-45
2022/05/08 07:55:39;;;;;;;23.38;4.20;;;;;;;11.12;63.22;102267.91;5037626;28;20032;-44
2022/05/08 07:58:05;;;;;;;16.85;4.13;;;;;;;11.30;63.70;102290.28;5055039;28;20159;-44
2022/05/08 08:00:31;;;;;;;20.02;4.00;;;;;;;11.42;64.05;102288.19;5037207;28;20059;-44
2022/05/08 08:02:57;;;;;;;30.27;5.43;;;;;;;11.28;62.05;102275.31;5055242;28;20037;-44
2022/05/08 08:05:23;;;;;;;24.13;4.57;;;;;;;11.29;61.89;102282.38;5037076;28;20033;-45
2022/05/08 08:07:49;;;;;;;17.92;4.32;;;;;;;11.41;61.10;102267.69;5054893;28;20084;-45
2022/05/08 08:10:15;;;;;;;12.80;4.38;;;;;;;11.43;61.66;102282.66;5036829;28;20111;-44
2022/05/08 08:12:41;;;;;;;24.23;4.85;;;;;;;11.51;61.61;102275.66;5054864;28;20446;-44
2022/05/08 08:15:09;;;;;;;21.33;5.47;;;;;;;11.44;60.29;102275.47;5054430;28;20096;-46
2022/05/08 08:17:35;;;;;;;22.35;4.13;;;;;;;11.56;61.48;102274.22;5036501;28;20032;-43
2022/05/08 08:20:02;;;;;;;21.25;4.50;;;;;;;11.68;61.93;102266.75;5054960;28;20039;-44
2022/05/08 08:22:28;;;;;;;19.83;3.83;;;;;;;11.85;60.08;102281.16;5054922;28;20500;-44
2022/05/08 08:24:55;;;;;;;19.60;4.22;;;;;;;12.01;60.58;102293.91;5055661;28;20039;-45
2022/05/08 08:27:20;;;;;;;22.40;4.60;;;;;;;12.14;59.52;102293.50;5055056;28;20112;-44
2022/05/08 08:29:47;;;;;;;15.60;3.92;;;;;;;12.12;59.35;102288.25;5056473;28;20075;-44
2022/05/08 08:32:13;;;;;;;21.23;4.07;;;;;;;12.31;59.70;102297.13;5055995;28;20037;-46
2022/05/08 08:34:39;;;;;;;18.55;4.00;;;;;;;12.54;59.65;102292.88;5054416;28;20470;-46
2022/05/08 08:37:05;;;;;;;24.40;4.43;;;;;;;12.75;59.40;102283.53;5037678;28;20087;-47
2022/05/08 08:39:30;;;;;;;20.77;4.18;;;;;;;13.13;58.60;102286.66;5053683;28;20461;-46
2022/05/08 08:42:08;;;;;;;19.55;4.38;;;;;;;14.25;55.20;102265.38;5037339;28;20083;-47
2022/05/08 08:50:05;;;;;;;20.27;3.72;;;;;;;16.38;49.83;102242.16;5059677;28;20028;-46
2022/05/08 08:52:32;;;;;;;21.38;4.40;;;;;;;17.41;48.19;102261.06;5074646;28;20028;-45
2022/05/08 08:54:59;;;;;;;14.32;3.88;;;;;;;18.13;46.92;102257.25;5056283;28;20052;-44
2022/05/08 08:57:24;;;;;;;20.60;3.78;;;;;;;18.15;46.18;102262.50;5056046;28;20035;-46
2022/05/08 08:59:50;;;;;;;19.58;3.92;;;;;;;18.90;44.76;102268.09;5074291;28;20025;-44
2022/05/08 09:02:18;;;;;;;15.65;3.78;;;;;;;19.42;44.00;102262.94;5056025;28;20028;-45
2022/05/08 09:04:46;;;;;;;17.05;3.35;;;;;;;19.54;44.21;102264.84;5055778;28;20034;-45
2022/05/08 09:07:41;;;;;;;18.05;4.55;;;;;;;19.95;40.53;102268.41;5056061;28;20035;-45
2022/05/08 09:10:10;;;;;;;23.08;4.05;;;;;;;20.47;40.14;102258.41;5060548;28;20086;-44
2022/05/08 09:12:40;;;;;;;16.05;3.03;;;;;;;20.95;40.26;102234.47;5073528;28;20047;-45
2022/05/08 09:15:27;;;;;;;15.30;2.90;;;;;;;21.69;38.82;102251.19;5073843;28;20035;-44
2022/05/08 09:17:56;;;;;;;11.85;2.90;;;;;;;22.34;38.29;102251.59;5041949;28;20040;-48
2022/05/08 09:20:29;;;;;;;13.57;3.75;;;;;;;22.27;37.91;102241.75;5074110;28;20028;-43
2022/05/08 09:23:17;;;;;;;11.95;3.47;;;;;;;22.65;37.10;102236.03;5039082;28;20056;-45
2022/05/08 09:25:54;;;;;;;16.58;3.88;;;;;;;23.52;37.45;102237.50;5059233;28;20372;-48
2022/05/08 09:28:30;;;;;;;11.52;3.40;;;;;;;23.36;34.36;102239.00;5073617;28;20035;-48
2022/05/08 09:31:00;;;;;;;12.57;3.90;;;;;;;23.07;35.33;102243.47;5055094;28;20118;-45
2022/05/08 09:33:30;;;;;;;14.38;3.60;;;;;;;23.27;34.29;102241.28;5055177;28;20035;-47
2022/05/08 09:35:57;;;;;;;9.60;3.30;;;;;;;23.52;36.52;102241.06;5073496;28;20119;-46
2022/05/08 09:38:22;;;;;;;12.95;2.97;;;;;;;24.05;34.91;102233.81;5055349;28;20499;-45
2022/05/08 09:41:05;;;;;;;16.35;4.28;;;;;;;23.85;31.89;102236.09;5074073;28;20066;-45
2022/05/08 09:43:31;;;;;;;14.10;3.42;;;;;;;24.31;33.74;102228.84;5055479;28;20488;-46
2022/05/08 09:45:58;;;;;;;9.77;3.45;;;;;;;24.54;31.68;102242.53;5055129;28;20052;-45
2022/05/08 09:48:26;;;;;;;11.57;3.60;;;;;;;24.42;34.79;102227.97;5073483;28;20032;-46
2022/05/08 09:50:57;;;;;;;15.20;3.33;;;;;;;24.25;32.28;102224.34;5073468;28;20044;-46
2022/05/08 09:53:24;;;;;;;9.57;3.03;;;;;;;24.87;33.19;102221.75;5055127;28;20059;-46
2022/05/08 09:56:01;;;;;;;15.13;3.53;;;;;;;25.06;30.63;102218.78;5072660;28;20024;-47
2022/05/08 09:58:27;;;;;;;15.75;3.80;;;;;;;23.99;32.23;102214.72;5073029;28;20032;-45
2022/05/08 10:00:54;;;;;;;15.70;4.45;;;;;;;24.54;33.00;102227.97;5072679;28;20040;-44
2022/05/08 10:03:21;;;;;;;12.90;4.28;;;;;;;25.41;32.82;102226.00;5054592;28;20026;-45
2022/05/08 10:05:48;;;;;;;12.65;4.05;;;;;;;26.10;30.05;102222.91;5073016;28;20100;-45
2022/05/08 10:08:15;;;;;;;11.63;4.10;;;;;;;25.91;31.14;102218.72;5073372;28;20028;-45
2022/05/08 10:16:55;;;;;;;10.75;3.67;;;;;;;25.91;29.46;102224.25;5058857;28;20028;-44
2022/05/08 10:19:43;;;;;;;11.00;3.78;;;;;;;26.56;29.29;102220.69;5058988;28;20115;-47
2022/05/08 10:22:12;;;;;;;13.32;3.45;;;;;;;25.96;30.90;102216.09;5042382;28;20032;-46
2022/05/08 10:24:51;;;;;;;17.23;3.75;;;;;;;25.93;29.98;102206.44;5055091;28;20393;-46
2022/05/08 10:27:22;;;;;;;15.93;3.92;;;;;;;26.45;30.04;102194.94;5073079;28;20056;-48
2022/05/08 10:30:20;;;;;;;15.27;4.10;;;;;;;27.33;29.19;102201.34;5054626;28;20081;-47
2022/05/08 10:32:50;;;;;;;10.95;3.80;;;;;;;27.97;29.07;102201.22;5059226;28;20598;-46
2022/05/08 10:35:18;;;;;;;9.88;3.33;;;;;;;28.16;28.84;102201.56;5072192;28;20432;-47
2022/05/08 10:38:16;;;;;;;12.43;3.58;;;;;;;28.29;25.80;102203.00;5072695;28;20043;-47
2022/05/08 10:40:42;;;;;;;13.73;3.83;;;;;;;27.88;28.97;102205.56;5058418;28;20111;-50
2022/05/08 10:43:25;;;;;;;14.48;3.78;;;;;;;27.19;26.07;102199.00;5076452;28;20039;-46
2022/05/08 10:45:52;;;;;;;11.93;4.35;;;;;;;26.18;28.32;102199.56;5070141;28;20056;-46
2022/05/08 10:48:20;;;;;;;13.02;3.55;;;;;;;26.31;28.93;102198.38;5056779;28;20033;-45
2022/05/08 10:50:48;;;;;;;12.93;3.80;;;;;;;26.95;28.92;102197.66;5038826;28;20074;-47
2022/05/08 10:53:26;;;;;;;13.02;3.63;;;;;;;27.71;28.76;102202.97;5055647;28;20037;-46
2022/05/08 10:55:58;;;;;;;11.40;3.38;;;;;;;27.90;26.76;102206.16;5056579;28;20029;-49
2022/05/08 10:58:24;;;;;;;10.30;3.63;;;;;;;27.57;27.05;102187.97;5039685;28;20385;-49
2022/05/08 11:00:55;;;;;;;11.15;4.00;;;;;;;27.40;26.77;102194.50;5039563;28;20067;-48
2022/05/08 11:03:22;;;;;;;8.82;3.38;;;;;;;27.69;29.68;102198.81;5057969;28;20361;-46
2022/05/08 11:05:48;;;;;;;17.40;4.20;;;;;;;27.24;27.34;102198.19;5058325;28;20029;-45
2022/05/08 11:08:24;;;;;;;11.68;3.58;;;;;;;26.76;26.89;102195.28;5055879;28;20029;-48
2022/05/08 11:11:02;;;;;;;14.50;3.67;;;;;;;25.17;28.34;102208.78;5038297;28;20036;-44
2022/05/08 11:13:48;;;;;;;11.05;3.25;;;;;;;25.02;31.11;102206.63;5055794;28;20033;-45
2022/05/08 11:16:33;;;;;;;14.32;4.07;;;;;;;25.93;29.37;102195.41;5024251;28;20055;-46
2022/05/08 11:19:01;;;;;;;18.60;3.65;;;;;;;27.73;29.25;102195.25;5057021;28;20029;-47
2022/05/08 11:21:26;;;;;;;11.60;3.33;;;;;;;28.11;27.20;102196.00;5023130;28;20065;-49
2022/05/08 11:23:54;;;;;;;15.35;3.70;;;;;;;28.14;27.23;102194.66;5056365;28;20373;-55
2022/05/08 11:26:27;;;;;;;12.35;2.95;;;;;;;28.65;26.32;102192.06;5056322;28;20021;-51
2022/05/08 11:28:55;;;;;;;8.40;3.17;;;;;;;28.18;26.97;102185.56;5022613;28;20025;-49
2022/05/08 11:31:24;;;;;;;15.48;3.83;;;;;;;27.72;26.38;102184.47;5040520;28;20029;-50
